GLD1154 SBBR-SBSP
Flight info
| Callsign | GLD1154 |
|---|---|
| Flight time | 1h 17m |
| Altitude | 35000 |
| Route | GEBEP UZ2 ENTIT |
| Aircraft | B738/M-SDFGIRY/S |
Departure
| Time | 2026-05-04 02:15 |
|---|---|
| Airport | Presidente Juscelino Kubitschek International Airport (SBBR) |
Arrival
| Time | 2026-05-04 03:32 |
|---|---|
| Airport | Congonhas–Deputado Freitas Nobre Airport (SBSP) |
| Time | Latitude | Longitude | Altitude | Speed | Heading |
|---|---|---|---|---|---|
| 2026-05-04 01:59 | -15.87120 | -47.91817 | 3471 ft | 0 kts | 176° |
| 2026-05-04 02:02 | -15.87115 | -47.91817 | 3471 ft | 4 kts | 173° |
| 2026-05-04 02:03 | -15.87095 | -47.91825 | 3447 ft | 4 kts | 109° |
| 2026-05-04 02:03 | -15.87094 | -47.91851 | 3470 ft | 4 kts | 84° |
| 2026-05-04 02:03 | -15.87095 | -47.91856 | 3470 ft | 0 kts | 86° |
| 2026-05-04 02:05 | -15.87085 | -47.91835 | 3474 ft | 8 kts | 63° |
| 2026-05-04 02:06 | -15.87060 | -47.91767 | 3471 ft | 10 kts | 79° |
| 2026-05-04 02:06 | -15.87071 | -47.91697 | 3470 ft | 11 kts | 135° |
| 2026-05-04 02:06 | -15.87171 | -47.91677 | 3471 ft | 17 kts | 177° |
| 2026-05-04 02:06 | -15.87283 | -47.91669 | 3471 ft | 16 kts | 177° |
| 2026-05-04 02:07 | -15.87392 | -47.91663 | 3470 ft | 15 kts | 176° |
| 2026-05-04 02:07 | -15.87496 | -47.91655 | 3468 ft | 15 kts | 176° |
| 2026-05-04 02:07 | -15.87595 | -47.91649 | 3465 ft | 14 kts | 176° |
| 2026-05-04 02:07 | -15.87692 | -47.91644 | 3463 ft | 14 kts | 187° |
| 2026-05-04 02:08 | -15.87740 | -47.91721 | 3462 ft | 15 kts | 265° |
| 2026-05-04 02:08 | -15.87747 | -47.91830 | 3463 ft | 15 kts | 266° |
| 2026-05-04 02:08 | -15.87754 | -47.91936 | 3467 ft | 16 kts | 266° |
| 2026-05-04 02:08 | -15.87762 | -47.92055 | 3469 ft | 16 kts | 266° |
| 2026-05-04 02:09 | -15.87770 | -47.92168 | 3471 ft | 16 kts | 267° |
| 2026-05-04 02:09 | -15.87776 | -47.92278 | 3472 ft | 15 kts | 265° |
| 2026-05-04 02:09 | -15.87783 | -47.92384 | 3475 ft | 15 kts | 266° |
| 2026-05-04 02:09 | -15.87791 | -47.92497 | 3472 ft | 16 kts | 266° |
| 2026-05-04 02:10 | -15.87798 | -47.92611 | 3476 ft | 15 kts | 266° |
| 2026-05-04 02:10 | -15.87805 | -47.92721 | 3477 ft | 15 kts | 266° |
| 2026-05-04 02:10 | -15.87812 | -47.92826 | 3480 ft | 14 kts | 266° |
| 2026-05-04 02:10 | -15.87819 | -47.92933 | 3480 ft | 17 kts | 266° |
| 2026-05-04 02:11 | -15.87827 | -47.93066 | 3482 ft | 19 kts | 266° |
| 2026-05-04 02:11 | -15.87836 | -47.93197 | 3486 ft | 18 kts | 267° |
| 2026-05-04 02:11 | -15.87844 | -47.93325 | 3495 ft | 17 kts | 266° |
| 2026-05-04 02:11 | -15.87851 | -47.93448 | 3497 ft | 17 kts | 266° |
| 2026-05-04 02:12 | -15.87859 | -47.93566 | 3499 ft | 16 kts | 265° |
| 2026-05-04 02:12 | -15.87867 | -47.93680 | 3504 ft | 15 kts | 266° |
| 2026-05-04 02:12 | -15.87874 | -47.93789 | 3511 ft | 15 kts | 266° |
| 2026-05-04 02:12 | -15.87880 | -47.93894 | 3508 ft | 14 kts | 266° |
| 2026-05-04 02:13 | -15.87910 | -47.93984 | 3508 ft | 14 kts | 215° |
| 2026-05-04 02:13 | -15.87955 | -47.93994 | 3509 ft | 0 kts | 178° |
| 2026-05-04 02:14 | -15.87995 | -47.93992 | 3514 ft | 11 kts | 174° |
| 2026-05-04 02:14 | -15.88061 | -47.93932 | 3511 ft | 14 kts | 94° |
| 2026-05-04 02:14 | -15.88046 | -47.93698 | 3504 ft | 70 kts | 86° |
| 2026-05-04 02:14 | -15.87992 | -47.92905 | 3478 ft | 148 kts | 86° |
| 2026-05-04 02:15 | -15.87936 | -47.91645 | 3733 ft | 191 kts | 88° |
| 2026-05-04 02:15 | -15.87883 | -47.90267 | 4717 ft | 198 kts | 95° |
| 2026-05-04 02:15 | -15.88463 | -47.88995 | 5511 ft | 204 kts | 134° |
| 2026-05-04 02:15 | -15.89837 | -47.88323 | 5711 ft | 237 kts | 166° |
| 2026-05-04 02:16 | -15.91526 | -47.88032 | 6114 ft | 256 kts | 167° |
| 2026-05-04 02:16 | -15.93369 | -47.87693 | 6575 ft | 273 kts | 166° |
| 2026-05-04 02:16 | -15.95228 | -47.87312 | 7494 ft | 271 kts | 165° |
| 2026-05-04 02:16 | -15.97063 | -47.86903 | 8386 ft | 270 kts | 164° |
| 2026-05-04 02:17 | -15.98907 | -47.86466 | 8812 ft | 272 kts | 163° |
| 2026-05-04 02:17 | -16.00744 | -47.86011 | 9135 ft | 269 kts | 162° |
| 2026-05-04 02:17 | -16.02563 | -47.85551 | 9148 ft | 269 kts | 162° |
| 2026-05-04 02:17 | -16.04381 | -47.85086 | 9150 ft | 269 kts | 162° |
| 2026-05-04 02:18 | -16.06179 | -47.84625 | 9152 ft | 269 kts | 162° |
| 2026-05-04 02:18 | -16.07996 | -47.84139 | 9200 ft | 272 kts | 161° |
| 2026-05-04 02:18 | -16.09828 | -47.83593 | 9779 ft | 275 kts | 160° |
| 2026-05-04 02:18 | -16.11666 | -47.83033 | 10503 ft | 281 kts | 160° |
| 2026-05-04 02:19 | -16.13623 | -47.82430 | 10714 ft | 307 kts | 160° |
| 2026-05-04 02:19 | -16.15759 | -47.81774 | 10902 ft | 332 kts | 161° |
| 2026-05-04 02:19 | -16.18041 | -47.81077 | 11246 ft | 349 kts | 161° |
| 2026-05-04 02:19 | -16.20390 | -47.80365 | 11871 ft | 354 kts | 162° |
| 2026-05-04 02:20 | -16.22775 | -47.79644 | 12588 ft | 357 kts | 162° |
| 2026-05-04 02:20 | -16.25170 | -47.78922 | 13268 ft | 360 kts | 162° |
| 2026-05-04 02:20 | -16.27593 | -47.78191 | 13878 ft | 365 kts | 162° |
| 2026-05-04 02:20 | -16.30049 | -47.77449 | 14423 ft | 368 kts | 163° |
| 2026-05-04 02:21 | -16.32521 | -47.76702 | 14972 ft | 372 kts | 163° |
| 2026-05-04 02:21 | -16.35022 | -47.75946 | 15511 ft | 375 kts | 163° |
| 2026-05-04 02:21 | -16.37539 | -47.75185 | 16054 ft | 379 kts | 163° |
| 2026-05-04 02:21 | -16.40085 | -47.74415 | 16580 ft | 382 kts | 164° |
| 2026-05-04 02:22 | -16.42652 | -47.73638 | 17111 ft | 386 kts | 164° |
| 2026-05-04 02:22 | -16.45246 | -47.72852 | 17628 ft | 389 kts | 164° |
| 2026-05-04 02:22 | -16.47860 | -47.72060 | 18155 ft | 393 kts | 164° |
| 2026-05-04 02:22 | -16.50496 | -47.71262 | 18624 ft | 396 kts | 165° |
| 2026-05-04 02:23 | -16.53157 | -47.70455 | 19055 ft | 400 kts | 165° |
| 2026-05-04 02:23 | -16.55802 | -47.69653 | 19499 ft | 402 kts | 165° |
| 2026-05-04 02:23 | -16.58504 | -47.68834 | 19947 ft | 405 kts | 165° |
| 2026-05-04 02:23 | -16.61226 | -47.68008 | 20392 ft | 408 kts | 165° |
| 2026-05-04 02:24 | -16.63964 | -47.67177 | 20839 ft | 411 kts | 165° |
| 2026-05-04 02:24 | -16.66720 | -47.66340 | 21264 ft | 414 kts | 165° |
| 2026-05-04 02:24 | -16.69500 | -47.65496 | 21691 ft | 417 kts | 165° |
| 2026-05-04 02:24 | -16.71346 | -47.64935 | 21960 ft | 419 kts | 165° |
| 2026-05-04 02:25 | -16.74160 | -47.64080 | 22389 ft | 422 kts | 165° |
| 2026-05-04 02:25 | -16.76985 | -47.63222 | 22801 ft | 425 kts | 165° |
| 2026-05-04 02:25 | -16.79836 | -47.62355 | 23198 ft | 427 kts | 165° |
| 2026-05-04 02:25 | -16.83639 | -47.61198 | 23712 ft | 431 kts | 165° |
| 2026-05-04 02:26 | -16.86526 | -47.60320 | 24046 ft | 433 kts | 165° |
| 2026-05-04 02:26 | -16.89427 | -47.59437 | 24416 ft | 435 kts | 166° |
| 2026-05-04 02:26 | -16.92334 | -47.58551 | 24774 ft | 436 kts | 166° |
| 2026-05-04 02:26 | -16.95257 | -47.57661 | 25103 ft | 438 kts | 166° |
| 2026-05-04 02:27 | -16.98189 | -47.56768 | 25440 ft | 440 kts | 166° |
| 2026-05-04 02:27 | -17.01101 | -47.55880 | 25788 ft | 441 kts | 166° |
| 2026-05-04 02:27 | -17.04053 | -47.54981 | 26128 ft | 443 kts | 166° |
| 2026-05-04 02:27 | -17.07017 | -47.54077 | 26444 ft | 445 kts | 166° |
| 2026-05-04 02:28 | -17.09997 | -47.53168 | 26755 ft | 447 kts | 166° |
| 2026-05-04 02:28 | -17.12991 | -47.52254 | 27069 ft | 448 kts | 166° |
| 2026-05-04 02:28 | -17.15992 | -47.51338 | 27368 ft | 450 kts | 166° |
| 2026-05-04 02:28 | -17.19004 | -47.50418 | 27674 ft | 452 kts | 166° |
| 2026-05-04 02:29 | -17.21007 | -47.49806 | 27877 ft | 453 kts | 166° |
| 2026-05-04 02:29 | -17.24038 | -47.48880 | 28161 ft | 455 kts | 166° |
| 2026-05-04 02:29 | -17.27082 | -47.47950 | 28446 ft | 457 kts | 167° |
| 2026-05-04 02:29 | -17.31141 | -47.46709 | 28830 ft | 460 kts | 167° |
| 2026-05-04 02:30 | -17.33217 | -47.46073 | 29009 ft | 461 kts | 167° |
| 2026-05-04 02:30 | -17.37303 | -47.44823 | 29376 ft | 463 kts | 167° |
| 2026-05-04 02:30 | -17.39398 | -47.44181 | 29560 ft | 464 kts | 167° |
| 2026-05-04 02:30 | -17.42508 | -47.43229 | 29817 ft | 466 kts | 167° |
| 2026-05-04 02:31 | -17.45586 | -47.42286 | 30096 ft | 468 kts | 167° |
| 2026-05-04 02:31 | -17.48711 | -47.41331 | 30362 ft | 468 kts | 168° |
| 2026-05-04 02:31 | -17.51865 | -47.40566 | 30677 ft | 464 kts | 173° |
| 2026-05-04 02:31 | -17.55046 | -47.40028 | 31037 ft | 461 kts | 175° |
| 2026-05-04 02:32 | -17.59294 | -47.39445 | 31499 ft | 459 kts | 176° |
| 2026-05-04 02:32 | -17.61394 | -47.39167 | 31694 ft | 459 kts | 176° |
| 2026-05-04 02:32 | -17.64555 | -47.38736 | 32007 ft | 459 kts | 176° |
| 2026-05-04 02:32 | -17.67720 | -47.38282 | 32341 ft | 458 kts | 176° |
| 2026-05-04 02:33 | -17.70872 | -47.37810 | 32704 ft | 456 kts | 176° |
| 2026-05-04 02:33 | -17.74014 | -47.37325 | 33022 ft | 456 kts | 176° |
| 2026-05-04 02:33 | -17.77164 | -47.36832 | 33317 ft | 456 kts | 176° |
| 2026-05-04 02:33 | -17.80258 | -47.36343 | 33644 ft | 455 kts | 176° |
| 2026-05-04 02:34 | -17.83385 | -47.35848 | 34001 ft | 454 kts | 176° |
| 2026-05-04 02:34 | -17.86504 | -47.35354 | 34298 ft | 453 kts | 176° |
| 2026-05-04 02:34 | -17.89629 | -47.34861 | 34540 ft | 453 kts | 176° |
| 2026-05-04 02:34 | -17.92748 | -47.34369 | 34755 ft | 454 kts | 176° |
| 2026-05-04 02:35 | -17.95871 | -47.33877 | 34992 ft | 454 kts | 176° |
| 2026-05-04 02:35 | -17.99012 | -47.33382 | 35089 ft | 457 kts | 176° |
| 2026-05-04 02:35 | -18.05316 | -47.32389 | 35094 ft | 459 kts | 176° |
| 2026-05-04 02:36 | -18.11594 | -47.31394 | 35079 ft | 453 kts | 176° |
| 2026-05-04 02:36 | -18.17819 | -47.30409 | 35105 ft | 452 kts | 176° |
| 2026-05-04 02:37 | -18.23999 | -47.29433 | 35100 ft | 452 kts | 177° |
| 2026-05-04 02:37 | -18.30230 | -47.28448 | 35099 ft | 452 kts | 177° |
| 2026-05-04 02:38 | -18.36461 | -47.27461 | 35107 ft | 453 kts | 177° |
| 2026-05-04 02:38 | -18.42712 | -47.26471 | 35118 ft | 454 kts | 177° |
| 2026-05-04 02:39 | -18.48990 | -47.25475 | 35111 ft | 456 kts | 177° |
| 2026-05-04 02:39 | -18.55237 | -47.24483 | 35110 ft | 457 kts | 177° |
| 2026-05-04 02:40 | -18.61525 | -47.23484 | 35122 ft | 457 kts | 177° |
| 2026-05-04 02:40 | -18.67830 | -47.22481 | 35123 ft | 458 kts | 177° |
| 2026-05-04 02:41 | -18.74149 | -47.21476 | 35126 ft | 459 kts | 177° |
| 2026-05-04 02:41 | -18.80465 | -47.20470 | 35123 ft | 459 kts | 177° |
| 2026-05-04 02:42 | -18.86785 | -47.19463 | 35124 ft | 459 kts | 177° |
| 2026-05-04 02:42 | -18.93056 | -47.18462 | 35133 ft | 459 kts | 178° |
| 2026-05-04 02:43 | -18.99365 | -47.17454 | 35123 ft | 458 kts | 178° |
| 2026-05-04 02:43 | -19.05671 | -47.16446 | 35120 ft | 458 kts | 178° |
| 2026-05-04 02:44 | -19.11964 | -47.15440 | 35125 ft | 457 kts | 178° |
| 2026-05-04 02:44 | -19.18261 | -47.14451 | 35125 ft | 456 kts | 178° |
| 2026-05-04 02:45 | -19.24544 | -47.13561 | 35126 ft | 455 kts | 179° |
| 2026-05-04 02:45 | -19.30832 | -47.12689 | 35140 ft | 455 kts | 179° |
| 2026-05-04 02:46 | -19.37073 | -47.11813 | 35154 ft | 455 kts | 179° |
| 2026-05-04 02:46 | -19.43352 | -47.10922 | 35172 ft | 455 kts | 179° |
| 2026-05-04 02:47 | -19.49640 | -47.10027 | 35173 ft | 455 kts | 179° |
| 2026-05-04 02:47 | -19.55927 | -47.09132 | 35180 ft | 455 kts | 179° |
| 2026-05-04 02:48 | -19.62212 | -47.08236 | 35196 ft | 455 kts | 179° |
| 2026-05-04 02:48 | -19.68485 | -47.07341 | 35166 ft | 455 kts | 179° |
| 2026-05-04 02:49 | -19.74729 | -47.06450 | 35136 ft | 455 kts | 179° |
| 2026-05-04 02:49 | -19.81015 | -47.05553 | 35145 ft | 455 kts | 179° |
| 2026-05-04 02:50 | -19.87291 | -47.04656 | 35156 ft | 455 kts | 179° |
| 2026-05-04 02:50 | -19.93566 | -47.03758 | 35155 ft | 454 kts | 179° |
| 2026-05-04 02:51 | -19.99840 | -47.02860 | 35146 ft | 454 kts | 179° |
| 2026-05-04 02:51 | -20.06056 | -47.01969 | 35143 ft | 454 kts | 179° |
| 2026-05-04 02:52 | -20.12327 | -47.01070 | 35156 ft | 454 kts | 179° |
| 2026-05-04 02:52 | -20.18604 | -47.00170 | 35150 ft | 455 kts | 179° |
| 2026-05-04 02:53 | -20.24879 | -46.99269 | 35132 ft | 455 kts | 179° |
| 2026-05-04 02:53 | -20.31168 | -46.98364 | 35134 ft | 455 kts | 179° |
| 2026-05-04 02:54 | -20.37433 | -46.97463 | 35143 ft | 455 kts | 179° |
| 2026-05-04 02:54 | -20.43705 | -46.96560 | 35137 ft | 454 kts | 179° |
| 2026-05-04 02:55 | -20.53103 | -46.95205 | 35146 ft | 454 kts | 179° |
| 2026-05-04 02:56 | -20.59329 | -46.94307 | 35151 ft | 453 kts | 179° |
| 2026-05-04 02:56 | -20.65584 | -46.93403 | 35143 ft | 453 kts | 179° |
| 2026-05-04 02:57 | -20.71824 | -46.92502 | 35153 ft | 453 kts | 179° |
| 2026-05-04 02:57 | -20.78036 | -46.91603 | 35138 ft | 452 kts | 179° |
| 2026-05-04 02:58 | -20.84268 | -46.90657 | 35150 ft | 452 kts | 179° |
| 2026-05-04 02:58 | -20.90506 | -46.89673 | 35154 ft | 453 kts | 179° |
| 2026-05-04 02:59 | -20.96744 | -46.88691 | 35151 ft | 453 kts | 179° |
| 2026-05-04 02:59 | -21.02934 | -46.87721 | 35180 ft | 452 kts | 179° |
| 2026-05-04 03:00 | -21.09170 | -46.86744 | 35165 ft | 452 kts | 179° |
| 2026-05-04 03:00 | -21.15401 | -46.85769 | 35162 ft | 452 kts | 179° |
| 2026-05-04 03:01 | -21.21625 | -46.84793 | 35156 ft | 452 kts | 179° |
| 2026-05-04 03:01 | -21.27840 | -46.83818 | 35176 ft | 451 kts | 179° |
| 2026-05-04 03:02 | -21.34057 | -46.82842 | 35164 ft | 451 kts | 179° |
| 2026-05-04 03:02 | -21.40282 | -46.81864 | 35162 ft | 451 kts | 179° |
| 2026-05-04 03:03 | -21.46491 | -46.80888 | 35165 ft | 451 kts | 179° |
| 2026-05-04 03:03 | -21.52694 | -46.79911 | 35168 ft | 450 kts | 180° |
| 2026-05-04 03:04 | -21.58897 | -46.78934 | 35167 ft | 450 kts | 180° |
| 2026-05-04 03:04 | -21.65056 | -46.77963 | 35170 ft | 451 kts | 180° |
| 2026-05-04 03:05 | -21.71262 | -46.76984 | 35170 ft | 451 kts | 180° |
| 2026-05-04 03:05 | -21.77489 | -46.76001 | 35179 ft | 452 kts | 180° |
| 2026-05-04 03:05 | -21.80608 | -46.75509 | 34877 ft | 455 kts | 180° |
| 2026-05-04 03:06 | -21.83726 | -46.75015 | 34531 ft | 450 kts | 180° |
| 2026-05-04 03:06 | -21.86814 | -46.74523 | 34115 ft | 446 kts | 180° |
| 2026-05-04 03:06 | -21.89878 | -46.74036 | 33667 ft | 443 kts | 180° |
| 2026-05-04 03:06 | -21.92917 | -46.73553 | 33245 ft | 439 kts | 180° |
| 2026-05-04 03:07 | -21.95933 | -46.73074 | 32823 ft | 436 kts | 180° |
| 2026-05-04 03:07 | -21.98921 | -46.72601 | 32450 ft | 432 kts | 180° |
| 2026-05-04 03:07 | -22.01865 | -46.72133 | 32080 ft | 427 kts | 180° |
| 2026-05-04 03:07 | -22.04798 | -46.71669 | 31686 ft | 424 kts | 180° |
| 2026-05-04 03:08 | -22.07670 | -46.71213 | 31296 ft | 421 kts | 180° |
| 2026-05-04 03:08 | -22.10558 | -46.70755 | 30889 ft | 419 kts | 180° |
| 2026-05-04 03:08 | -22.13437 | -46.70299 | 30491 ft | 416 kts | 180° |
| 2026-05-04 03:08 | -22.16293 | -46.69846 | 30055 ft | 414 kts | 180° |
| 2026-05-04 03:09 | -22.19134 | -46.69395 | 29632 ft | 411 kts | 180° |
| 2026-05-04 03:09 | -22.21960 | -46.68946 | 29180 ft | 408 kts | 180° |
| 2026-05-04 03:09 | -22.24764 | -46.68500 | 28757 ft | 405 kts | 180° |
| 2026-05-04 03:09 | -22.27538 | -46.68059 | 28325 ft | 402 kts | 180° |
| 2026-05-04 03:10 | -22.30296 | -46.67620 | 27924 ft | 398 kts | 180° |
| 2026-05-04 03:10 | -22.33028 | -46.67186 | 27522 ft | 395 kts | 180° |
| 2026-05-04 03:10 | -22.35742 | -46.66754 | 27124 ft | 393 kts | 179° |
| 2026-05-04 03:10 | -22.38436 | -46.66339 | 26732 ft | 388 kts | 183° |
| 2026-05-04 03:11 | -22.41037 | -46.66537 | 26319 ft | 365 kts | 204° |
| 2026-05-04 03:11 | -22.43317 | -46.67563 | 25938 ft | 349 kts | 218° |
| 2026-05-04 03:11 | -22.45205 | -46.69140 | 25556 ft | 340 kts | 228° |
| 2026-05-04 03:11 | -22.46896 | -46.70866 | 25150 ft | 338 kts | 229° |
| 2026-05-04 03:12 | -22.48593 | -46.72630 | 24754 ft | 338 kts | 229° |
| 2026-05-04 03:12 | -22.50296 | -46.74391 | 24364 ft | 338 kts | 228° |
| 2026-05-04 03:12 | -22.52009 | -46.76134 | 23962 ft | 338 kts | 228° |
| 2026-05-04 03:12 | -22.53725 | -46.77867 | 23549 ft | 337 kts | 227° |
| 2026-05-04 03:13 | -22.55435 | -46.79591 | 23165 ft | 334 kts | 227° |
| 2026-05-04 03:13 | -22.57117 | -46.81288 | 23005 ft | 327 kts | 227° |
| 2026-05-04 03:13 | -22.58771 | -46.82959 | 22822 ft | 327 kts | 227° |
| 2026-05-04 03:13 | -22.60430 | -46.84642 | 22677 ft | 334 kts | 227° |
| 2026-05-04 03:14 | -22.62138 | -46.86373 | 22499 ft | 338 kts | 227° |
| 2026-05-04 03:14 | -22.63856 | -46.88112 | 22317 ft | 336 kts | 227° |
| 2026-05-04 03:14 | -22.65559 | -46.89835 | 22149 ft | 334 kts | 227° |
| 2026-05-04 03:14 | -22.67252 | -46.91546 | 21983 ft | 333 kts | 226° |
| 2026-05-04 03:15 | -22.69091 | -46.93092 | 21810 ft | 335 kts | 218° |
| 2026-05-04 03:15 | -22.71071 | -46.94443 | 21650 ft | 336 kts | 216° |
| 2026-05-04 03:15 | -22.73071 | -46.95744 | 21484 ft | 335 kts | 216° |
| 2026-05-04 03:15 | -22.75067 | -46.97048 | 21354 ft | 335 kts | 216° |
| 2026-05-04 03:16 | -22.77052 | -46.98365 | 21165 ft | 334 kts | 217° |
| 2026-05-04 03:16 | -22.79024 | -46.99691 | 21007 ft | 334 kts | 217° |
| 2026-05-04 03:16 | -22.80990 | -47.01024 | 20819 ft | 333 kts | 217° |
| 2026-05-04 03:16 | -22.82955 | -47.02363 | 20662 ft | 333 kts | 217° |
| 2026-05-04 03:17 | -22.84917 | -47.03702 | 20502 ft | 333 kts | 217° |
| 2026-05-04 03:17 | -22.86853 | -47.05024 | 20336 ft | 333 kts | 217° |
| 2026-05-04 03:17 | -22.88815 | -47.06363 | 20067 ft | 336 kts | 217° |
| 2026-05-04 03:17 | -22.90816 | -47.07721 | 19601 ft | 341 kts | 216° |
| 2026-05-04 03:18 | -22.92834 | -47.09084 | 19152 ft | 343 kts | 216° |
| 2026-05-04 03:18 | -22.94870 | -47.10459 | 18671 ft | 344 kts | 216° |
| 2026-05-04 03:18 | -22.96217 | -47.11370 | 18330 ft | 344 kts | 216° |
| 2026-05-04 03:18 | -22.98228 | -47.12729 | 17815 ft | 336 kts | 216° |
| 2026-05-04 03:19 | -23.00191 | -47.14055 | 17340 ft | 329 kts | 215° |
| 2026-05-04 03:19 | -23.02278 | -47.15029 | 16858 ft | 329 kts | 195° |
| 2026-05-04 03:19 | -23.04565 | -47.15162 | 16447 ft | 335 kts | 177° |
| 2026-05-04 03:19 | -23.06890 | -47.14722 | 16009 ft | 340 kts | 172° |
| 2026-05-04 03:20 | -23.09217 | -47.14186 | 15526 ft | 342 kts | 171° |
| 2026-05-04 03:20 | -23.11525 | -47.13639 | 15046 ft | 336 kts | 171° |
| 2026-05-04 03:20 | -23.13794 | -47.13111 | 14582 ft | 330 kts | 172° |
| 2026-05-04 03:20 | -23.16033 | -47.12602 | 14130 ft | 326 kts | 172° |
| 2026-05-04 03:21 | -23.18210 | -47.12116 | 13646 ft | 321 kts | 172° |
| 2026-05-04 03:21 | -23.20383 | -47.11634 | 13180 ft | 316 kts | 172° |
| 2026-05-04 03:21 | -23.22535 | -47.11160 | 12742 ft | 315 kts | 171° |
| 2026-05-04 03:21 | -23.24680 | -47.10687 | 12311 ft | 314 kts | 172° |
| 2026-05-04 03:22 | -23.26823 | -47.10217 | 11947 ft | 313 kts | 171° |
| 2026-05-04 03:22 | -23.28958 | -47.09750 | 11570 ft | 314 kts | 171° |
| 2026-05-04 03:22 | -23.31106 | -47.09280 | 11192 ft | 315 kts | 171° |
| 2026-05-04 03:22 | -23.33252 | -47.08810 | 10813 ft | 312 kts | 171° |
| 2026-05-04 03:23 | -23.35346 | -47.08351 | 10590 ft | 299 kts | 170° |
| 2026-05-04 03:23 | -23.37324 | -47.07916 | 10529 ft | 283 kts | 171° |
| 2026-05-04 03:23 | -23.39293 | -47.07484 | 9859 ft | 292 kts | 170° |
| 2026-05-04 03:23 | -23.41225 | -47.06836 | 9374 ft | 292 kts | 150° |
| 2026-05-04 03:24 | -23.42661 | -47.05370 | 9085 ft | 285 kts | 123° |
| 2026-05-04 03:24 | -23.43474 | -47.03431 | 8836 ft | 281 kts | 106° |
| 2026-05-04 03:24 | -23.44025 | -47.01355 | 8340 ft | 289 kts | 104° |
| 2026-05-04 03:24 | -23.44551 | -46.99246 | 8006 ft | 287 kts | 104° |
| 2026-05-04 03:25 | -23.45067 | -46.97174 | 7737 ft | 280 kts | 104° |
| 2026-05-04 03:25 | -23.45578 | -46.95153 | 7466 ft | 274 kts | 104° |
| 2026-05-04 03:25 | -23.46085 | -46.93168 | 7217 ft | 271 kts | 104° |
| 2026-05-04 03:25 | -23.46591 | -46.91194 | 6962 ft | 270 kts | 104° |
| 2026-05-04 03:26 | -23.47099 | -46.89225 | 6730 ft | 270 kts | 104° |
| 2026-05-04 03:26 | -23.47608 | -46.87259 | 6468 ft | 269 kts | 104° |
| 2026-05-04 03:26 | -23.48109 | -46.85328 | 6216 ft | 261 kts | 104° |
| 2026-05-04 03:26 | -23.48593 | -46.83458 | 5967 ft | 252 kts | 104° |
| 2026-05-04 03:27 | -23.49062 | -46.81651 | 5731 ft | 243 kts | 105° |
| 2026-05-04 03:27 | -23.49512 | -46.79909 | 5519 ft | 232 kts | 105° |
| 2026-05-04 03:27 | -23.49936 | -46.78271 | 5326 ft | 218 kts | 105° |
| 2026-05-04 03:27 | -23.50329 | -46.76752 | 5128 ft | 204 kts | 105° |
| 2026-05-04 03:28 | -23.50699 | -46.75322 | 4921 ft | 189 kts | 105° |
| 2026-05-04 03:28 | -23.51082 | -46.74008 | 4733 ft | 176 kts | 115° |
| 2026-05-04 03:28 | -23.51960 | -46.73148 | 4614 ft | 172 kts | 147° |
| 2026-05-04 03:28 | -23.52921 | -46.72429 | 4472 ft | 161 kts | 137° |
| 2026-05-04 03:29 | -23.53815 | -46.71753 | 4292 ft | 154 kts | 144° |
| 2026-05-04 03:29 | -23.54691 | -46.71160 | 4220 ft | 145 kts | 143° |
| 2026-05-04 03:29 | -23.55525 | -46.70586 | 4094 ft | 138 kts | 143° |
| 2026-05-04 03:29 | -23.56298 | -46.70051 | 3931 ft | 131 kts | 144° |
| 2026-05-04 03:30 | -23.57055 | -46.69528 | 3799 ft | 128 kts | 144° |
| 2026-05-04 03:30 | -23.57813 | -46.69003 | 3631 ft | 129 kts | 144° |
| 2026-05-04 03:30 | -23.58573 | -46.68477 | 3461 ft | 129 kts | 145° |
| 2026-05-04 03:30 | -23.59329 | -46.67954 | 3274 ft | 128 kts | 144° |
| 2026-05-04 03:31 | -23.60081 | -46.67435 | 3105 ft | 130 kts | 145° |
| 2026-05-04 03:31 | -23.60850 | -46.66903 | 2919 ft | 131 kts | 145° |
| 2026-05-04 03:31 | -23.61611 | -46.66374 | 2731 ft | 128 kts | 145° |
| 2026-05-04 03:31 | -23.62321 | -46.65890 | 2600 ft | 121 kts | 147° |
| 2026-05-04 03:32 | -23.62880 | -46.65496 | 2607 ft | 66 kts | 147° |
| 2026-05-04 03:32 | -23.63106 | -46.65372 | 2609 ft | 18 kts | 181° |
| 2026-05-04 03:32 | -23.63157 | -46.65440 | 2602 ft | 12 kts | 305° |
| 2026-05-04 03:32 | -23.63155 | -46.65444 | 2601 ft | 0 kts | 305° |
| 2026-05-04 03:33 | -23.63121 | -46.65477 | 2601 ft | 13 kts | 327° |
| 2026-05-04 03:33 | -23.63034 | -46.65519 | 2602 ft | 14 kts | 353° |
| 2026-05-04 03:34 | -23.62947 | -46.65559 | 2602 ft | 13 kts | 329° |
| 2026-05-04 03:34 | -23.62872 | -46.65615 | 2602 ft | 13 kts | 325° |
| 2026-05-04 03:34 | -23.62786 | -46.65674 | 2602 ft | 15 kts | 328° |
| 2026-05-04 03:34 | -23.62696 | -46.65735 | 2601 ft | 15 kts | 328° |
| 2026-05-04 03:35 | -23.62611 | -46.65794 | 2601 ft | 14 kts | 327° |
| 2026-05-04 03:35 | -23.62571 | -46.65854 | 2600 ft | 8 kts | 254° |
| 2026-05-04 03:35 | -23.62593 | -46.65894 | 2600 ft | 0 kts | 237° |
| 2026-05-04 03:35 | -23.62595 | -46.65896 | 2600 ft | 0 kts | 237° |
| 2026-05-04 03:36 | -23.62597 | -46.65901 | 2600 ft | 1 kts | 237° |
| 2026-05-04 03:36 | -23.62599 | -46.65904 | 2600 ft | 0 kts | 237° |